Stonyfork, Pennsylvania
Current Conditions -  °F | °C
As of 10:35 PM on Friday 19 Dec 2014 (Local Time) from KN38 Reporting Station
Overcast Overcast  
Wind Chill: 12°   Ceiling: 1800
Heat Index: 23°   Visibility: 10mi
Dew Point: 18°   Wind: 10mph
Humidity: 80%   Direction: 340°NNW
Pressure: 30.19"   Gusts: 16mph
Location:  41.7308°N, 77.349°W
Report Text: KN38 200335Z AUTO 34009G14KT 10SM OVC018 M05/M08 A3019 RMK AO2
Loading
Personal Weather Stations






























Interactive Weather Map New forecast layout! Learn more

10-Day Weather Forecast

Advertisements
Track Severe Weather on mobile